sensor_id;sensor_type;location;lat;lon;timestamp;pressure;altitude;pressure_sealevel;temperature;humidity
38022;BME280;23832;43.216;27.946;2022-10-16T00:01:06;101515.28;;;16.55;96.63
38022;BME280;23832;43.216;27.946;2022-10-16T00:03:09;101506.63;;;16.53;97.23
38022;BME280;23832;43.216;27.946;2022-10-16T00:05:11;101507.84;;;16.50;97.64
38022;BME280;23832;43.216;27.946;2022-10-16T00:07:14;101508.84;;;16.49;97.67
38022;BME280;23832;43.216;27.946;2022-10-16T00:09:16;101514.56;;;16.46;99.38
38022;BME280;23832;43.216;27.946;2022-10-16T00:11:19;101512.94;;;16.45;98.84
38022;BME280;23832;43.216;27.946;2022-10-16T00:13:21;101519.44;;;16.42;99.09
38022;BME280;23832;43.216;27.946;2022-10-16T00:15:23;101520.66;;;16.40;100.00
38022;BME280;23832;43.216;27.946;2022-10-16T00:17:25;101521.03;;;16.37;100.00
38022;BME280;23832;43.216;27.946;2022-10-16T00:19:26;101516.25;;;16.32;100.00
38022;BME280;23832;43.216;27.946;2022-10-16T00:21:29;101524.81;;;16.28;100.00
38022;BME280;23832;43.216;27.946;2022-10-16T00:23:32;101522.53;;;16.25;100.00
38022;BME280;23832;43.216;27.946;2022-10-16T00:25:34;101530.06;;;16.21;100.00
38022;BME280;23832;43.216;27.946;2022-10-16T00:27:36;101526.13;;;16.17;100.00
38022;BME280;23832;43.216;27.946;2022-10-16T00:29:37;101522.00;;;16.14;100.00
38022;BME280;23832;43.216;27.946;2022-10-16T00:31:39;101520.75;;;16.10;100.00
38022;BME280;23832;43.216;27.946;2022-10-16T00:33:41;101530.09;;;16.06;100.00
38022;BME280;23832;43.216;27.946;2022-10-16T00:35:43;101528.00;;;16.02;100.00
38022;BME280;23832;43.216;27.946;2022-10-16T00:37:45;101521.22;;;15.99;100.00
38022;BME280;23832;43.216;27.946;2022-10-16T00:39:48;101518.13;;;15.96;100.00
38022;BME280;23832;43.216;27.946;2022-10-16T00:41:50;101512.34;;;15.92;100.00
38022;BME280;23832;43.216;27.946;2022-10-16T00:43:53;101516.19;;;15.89;100.00
38022;BME280;23832;43.216;27.946;2022-10-16T00:45:55;101510.25;;;15.87;100.00
38022;BME280;23832;43.216;27.946;2022-10-16T00:47:57;101504.66;;;15.82;100.00
38022;BME280;23832;43.216;27.946;2022-10-16T00:50:00;101508.50;;;15.80;100.00
38022;BME280;23832;43.216;27.946;2022-10-16T00:52:03;101509.06;;;15.75;100.00
38022;BME280;23832;43.216;27.946;2022-10-16T00:54:08;101504.31;;;15.71;100.00
38022;BME280;23832;43.216;27.946;2022-10-16T00:56:12;101504.69;;;15.68;100.00
38022;BME280;23832;43.216;27.946;2022-10-16T00:58:14;101509.56;;;15.64;100.00
38022;BME280;23832;43.216;27.946;2022-10-16T01:00:17;101500.09;;;15.61;100.00
38022;BME280;23832;43.216;27.946;2022-10-16T01:02:20;101503.91;;;15.59;100.00
38022;BME280;23832;43.216;27.946;2022-10-16T01:04:21;101500.44;;;15.58;100.00
38022;BME280;23832;43.216;27.946;2022-10-16T01:06:25;101510.25;;;15.58;100.00
38022;BME280;23832;43.216;27.946;2022-10-16T01:08:34;101510.44;;;15.56;100.00
38022;BME280;23832;43.216;27.946;2022-10-16T01:10:40;101512.28;;;15.56;100.00
38022;BME280;23832;43.216;27.946;2022-10-16T01:12:48;101508.94;;;15.54;100.00
38022;BME280;23832;43.216;27.946;2022-10-16T01:14:53;101521.78;;;15.50;100.00
38022;BME280;23832;43.216;27.946;2022-10-16T01:16:56;101525.66;;;15.48;100.00
38022;BME280;23832;43.216;27.946;2022-10-16T01:19:01;101519.69;;;15.46;100.00
38022;BME280;23832;43.216;27.946;2022-10-16T01:21:07;101531.69;;;15.42;100.00
38022;BME280;23832;43.216;27.946;2022-10-16T01:23:13;101525.56;;;15.41;100.00
38022;BME280;23832;43.216;27.946;2022-10-16T01:25:19;101527.38;;;15.41;100.00
38022;BME280;23832;43.216;27.946;2022-10-16T01:27:28;101530.22;;;15.39;100.00
38022;BME280;23832;43.216;27.946;2022-10-16T01:29:33;101530.41;;;15.38;100.00
38022;BME280;23832;43.216;27.946;2022-10-16T01:31:37;101536.72;;;15.37;100.00
38022;BME280;23832;43.216;27.946;2022-10-16T01:33:41;101541.38;;;15.34;100.00
38022;BME280;23832;43.216;27.946;2022-10-16T01:35:45;101538.72;;;15.34;100.00
38022;BME280;23832;43.216;27.946;2022-10-16T01:37:48;101536.06;;;15.34;100.00
38022;BME280;23832;43.216;27.946;2022-10-16T01:39:53;101547.72;;;15.33;100.00
38022;BME280;23832;43.216;27.946;2022-10-16T01:41:58;101548.72;;;15.32;100.00
38022;BME280;23832;43.216;27.946;2022-10-16T01:44:04;101543.78;;;15.29;100.00
38022;BME280;23832;43.216;27.946;2022-10-16T01:46:06;101544.13;;;15.26;100.00
38022;BME280;23832;43.216;27.946;2022-10-16T01:48:10;101546.16;;;15.24;100.00
38022;BME280;23832;43.216;27.946;2022-10-16T01:50:14;101549.81;;;15.23;100.00
38022;BME280;23832;43.216;27.946;2022-10-16T01:52:17;101550.19;;;15.20;100.00
38022;BME280;23832;43.216;27.946;2022-10-16T01:54:21;101555.69;;;15.19;100.00
38022;BME280;23832;43.216;27.946;2022-10-16T01:56:24;101555.00;;;15.17;100.00
38022;BME280;23832;43.216;27.946;2022-10-16T01:58:26;101548.06;;;15.16;100.00
38022;BME280;23832;43.216;27.946;2022-10-16T02:00:36;101546.59;;;15.13;100.00
38022;BME280;23832;43.216;27.946;2022-10-16T02:02:39;101552.91;;;15.12;100.00
38022;BME280;23832;43.216;27.946;2022-10-16T02:04:43;101545.13;;;15.11;100.00
38022;BME280;23832;43.216;27.946;2022-10-16T02:06:47;101547.13;;;15.09;100.00
38022;BME280;23832;43.216;27.946;2022-10-16T02:08:48;101549.13;;;15.07;100.00
38022;BME280;23832;43.216;27.946;2022-10-16T02:10:50;101549.97;;;15.07;100.00
38022;BME280;23832;43.216;27.946;2022-10-16T02:12:53;101550.97;;;15.06;100.00
38022;BME280;23832;43.216;27.946;2022-10-16T02:14:57;101543.00;;;15.06;100.00
38022;BME280;23832;43.216;27.946;2022-10-16T02:17:00;101547.50;;;15.05;100.00
38022;BME280;23832;43.216;27.946;2022-10-16T02:19:02;101545.03;;;15.04;100.00
38022;BME280;23832;43.216;27.946;2022-10-16T02:21:05;101550.34;;;15.04;100.00
38022;BME280;23832;43.216;27.946;2022-10-16T02:23:12;101548.03;;;15.01;100.00
38022;BME280;23832;43.216;27.946;2022-10-16T02:25:17;101544.91;;;14.97;100.00
38022;BME280;23832;43.216;27.946;2022-10-16T02:27:22;101552.03;;;14.97;100.00
38022;BME280;23832;43.216;27.946;2022-10-16T02:29:26;101553.69;;;14.98;100.00
38022;BME280;23832;43.216;27.946;2022-10-16T02:31:28;101550.22;;;14.97;100.00
38022;BME280;23832;43.216;27.946;2022-10-16T02:33:35;101558.38;;;14.96;100.00
38022;BME280;23832;43.216;27.946;2022-10-16T02:35:39;101554.06;;;14.95;100.00
38022;BME280;23832;43.216;27.946;2022-10-16T02:37:41;101555.91;;;14.94;100.00
38022;BME280;23832;43.216;27.946;2022-10-16T02:39:44;101562.03;;;14.95;100.00
38022;BME280;23832;43.216;27.946;2022-10-16T02:41:45;101562.03;;;14.95;100.00
38022;BME280;23832;43.216;27.946;2022-10-16T02:43:47;101562.03;;;14.95;100.00
38022;BME280;23832;43.216;27.946;2022-10-16T02:45:49;101561.19;;;14.94;100.00
38022;BME280;23832;43.216;27.946;2022-10-16T02:47:51;101564.03;;;14.93;100.00
38022;BME280;23832;43.216;27.946;2022-10-16T02:49:54;101558.72;;;14.93;99.60
38022;BME280;23832;43.216;27.946;2022-10-16T02:51:56;101575.50;;;14.93;98.06
38022;BME280;23832;43.216;27.946;2022-10-16T02:53:57;101575.66;;;14.92;97.62
38022;BME280;23832;43.216;27.946;2022-10-16T02:55:59;101574.00;;;14.91;96.09
38022;BME280;23832;43.216;27.946;2022-10-16T02:58:01;101575.00;;;14.90;96.45
38022;BME280;23832;43.216;27.946;2022-10-16T03:00:03;101577.66;;;14.90;96.64
38022;BME280;23832;43.216;27.946;2022-10-16T03:02:05;101571.53;;;14.89;94.88
38022;BME280;23832;43.216;27.946;2022-10-16T03:04:07;101576.84;;;14.89;95.61
38022;BME280;23832;43.216;27.946;2022-10-16T03:06:10;101568.03;;;14.89;95.38
38022;BME280;23832;43.216;27.946;2022-10-16T03:08:12;101572.16;;;14.91;94.76
38022;BME280;23832;43.216;27.946;2022-10-16T03:10:14;101575.81;;;14.90;94.03
38022;BME280;23832;43.216;27.946;2022-10-16T03:12:16;101576.66;;;14.91;94.01
38022;BME280;23832;43.216;27.946;2022-10-16T03:14:18;101579.47;;;14.89;93.03
38022;BME280;23832;43.216;27.946;2022-10-16T03:16:20;101580.31;;;14.90;93.35
38022;BME280;23832;43.216;27.946;2022-10-16T03:18:21;101581.81;;;14.92;92.90
38022;BME280;23832;43.216;27.946;2022-10-16T03:20:23;101582.63;;;14.93;92.00
38022;BME280;23832;43.216;27.946;2022-10-16T03:22:26;101579.97;;;14.93;91.66
38022;BME280;23832;43.216;27.946;2022-10-16T03:24:28;101582.63;;;14.93;91.16
38022;BME280;23832;43.216;27.946;2022-10-16T03:26:29;101587.13;;;14.92;90.64
38022;BME280;23832;43.216;27.946;2022-10-16T03:28:31;101582.63;;;14.93;90.89
38022;BME280;23832;43.216;27.946;2022-10-16T03:30:33;101588.09;;;14.91;90.86
38022;BME280;23832;43.216;27.946;2022-10-16T03:32:35;101584.47;;;14.92;91.45
38022;BME280;23832;43.216;27.946;2022-10-16T03:34:36;101579.97;;;14.93;92.29
38022;BME280;23832;43.216;27.946;2022-10-16T03:36:38;101585.28;;;14.93;92.12
38022;BME280;23832;43.216;27.946;2022-10-16T03:38:41;101586.94;;;14.94;91.79
38022;BME280;23832;43.216;27.946;2022-10-16T03:40:42;101591.22;;;14.95;90.97
38022;BME280;23832;43.216;27.946;2022-10-16T03:42:44;101590.41;;;14.94;90.89
38022;BME280;23832;43.216;27.946;2022-10-16T03:44:46;101597.56;;;14.94;90.35
38022;BME280;23832;43.216;27.946;2022-10-16T03:46:47;101602.03;;;14.93;90.98
38022;BME280;23832;43.216;27.946;2022-10-16T03:48:49;101599.56;;;14.92;90.34
38022;BME280;23832;43.216;27.946;2022-10-16T03:50:51;101597.06;;;14.90;88.88
38022;BME280;23832;43.216;27.946;2022-10-16T03:52:52;101589.28;;;14.89;89.37
38022;BME280;23832;43.216;27.946;2022-10-16T03:54:56;101591.28;;;14.87;89.44
38022;BME280;23832;43.216;27.946;2022-10-16T03:56:57;101584.53;;;14.84;89.07
38022;BME280;23832;43.216;27.946;2022-10-16T03:58:59;101584.66;;;14.83;89.56
38022;BME280;23832;43.216;27.946;2022-10-16T04:01:01;101590.34;;;14.80;89.49
38022;BME280;23832;43.216;27.946;2022-10-16T04:03:03;101582.56;;;14.78;89.92
38022;BME280;23832;43.216;27.946;2022-10-16T04:05:05;101589.69;;;14.77;90.19
38022;BME280;23832;43.216;27.946;2022-10-16T04:07:07;101594.38;;;14.75;90.62
38022;BME280;23832;43.216;27.946;2022-10-16T04:09:08;101593.53;;;14.75;91.85
38022;BME280;23832;43.216;27.946;2022-10-16T04:11:12;101596.19;;;14.75;91.51
38022;BME280;23832;43.216;27.946;2022-10-16T04:13:13;101595.38;;;14.74;90.61
38022;BME280;23832;43.216;27.946;2022-10-16T04:15:16;101603.34;;;14.74;91.12
38022;BME280;23832;43.216;27.946;2022-10-16T04:17:18;101602.50;;;14.74;91.50
38022;BME280;23832;43.216;27.946;2022-10-16T04:19:19;101599.00;;;14.73;91.44
38022;BME280;23832;43.216;27.946;2022-10-16T04:21:21;101598.03;;;14.74;91.22
38022;BME280;23832;43.216;27.946;2022-10-16T04:23:23;101603.34;;;14.74;91.03
38022;BME280;23832;43.216;27.946;2022-10-16T04:25:25;101604.16;;;14.75;92.06
38022;BME280;23832;43.216;27.946;2022-10-16T04:27:28;101597.84;;;14.76;91.42
38022;BME280;23832;43.216;27.946;2022-10-16T04:29:31;101600.50;;;14.76;90.73
38022;BME280;23832;43.216;27.946;2022-10-16T04:31:33;101603.34;;;14.74;90.42
38022;BME280;23832;43.216;27.946;2022-10-16T04:33:34;101613.97;;;14.74;90.73
38022;BME280;23832;43.216;27.946;2022-10-16T04:35:36;101608.66;;;14.74;89.78
38022;BME280;23832;43.216;27.946;2022-10-16T04:37:38;101621.09;;;14.74;90.55
38022;BME280;23832;43.216;27.946;2022-10-16T04:39:39;101615.94;;;14.72;90.85
38022;BME280;23832;43.216;27.946;2022-10-16T04:41:41;101620.59;;;14.70;90.00
38022;BME280;23832;43.216;27.946;2022-10-16T04:43:44;101627.38;;;14.73;90.56
38022;BME280;23832;43.216;27.946;2022-10-16T04:45:46;101633.50;;;14.73;90.88
38022;BME280;23832;43.216;27.946;2022-10-16T04:47:48;101631.72;;;14.74;89.97
38022;BME280;23832;43.216;27.946;2022-10-16T04:49:49;101632.69;;;14.73;89.91
38022;BME280;23832;43.216;27.946;2022-10-16T04:51:51;101634.38;;;14.74;90.26
38022;BME280;23832;43.216;27.946;2022-10-16T04:53:53;101641.47;;;14.73;89.89
38022;BME280;23832;43.216;27.946;2022-10-16T04:55:54;101642.97;;;14.76;90.87
38022;BME280;23832;43.216;27.946;2022-10-16T04:57:57;101646.44;;;14.76;90.03
38022;BME280;23832;43.216;27.946;2022-10-16T05:00:00;101645.44;;;14.77;89.95
38022;BME280;23832;43.216;27.946;2022-10-16T05:02:03;101651.41;;;14.80;90.07
38022;BME280;23832;43.216;27.946;2022-10-16T05:04:05;101659.38;;;14.80;89.25
38022;BME280;23832;43.216;27.946;2022-10-16T05:06:07;101657.53;;;14.80;88.59
38022;BME280;23832;43.216;27.946;2022-10-16T05:08:08;101648.38;;;14.83;90.55
38022;BME280;23832;43.216;27.946;2022-10-16T05:10:10;101649.34;;;14.90;92.38
38022;BME280;23832;43.216;27.946;2022-10-16T05:12:12;101647.63;;;14.97;93.24
38022;BME280;23832;43.216;27.946;2022-10-16T05:14:13;101655.72;;;15.03;93.01
38022;BME280;23832;43.216;27.946;2022-10-16T05:16:17;101668.13;;;15.11;91.69
38022;BME280;23832;43.216;27.946;2022-10-16T05:18:18;101669.34;;;15.23;93.09
38022;BME280;23832;43.216;27.946;2022-10-16T05:20:20;101668.75;;;15.36;93.57
38022;BME280;23832;43.216;27.946;2022-10-16T05:22:21;101667.97;;;15.50;94.20
38022;BME280;23832;43.216;27.946;2022-10-16T05:24:23;101665.00;;;15.68;96.24
38022;BME280;23832;43.216;27.946;2022-10-16T05:26:25;101668.97;;;15.87;97.69
38022;BME280;23832;43.216;27.946;2022-10-16T05:28:27;101672.72;;;16.07;97.05
38022;BME280;23832;43.216;27.946;2022-10-16T05:30:30;101682.81;;;16.27;95.86
38022;BME280;23832;43.216;27.946;2022-10-16T05:32:33;101682.78;;;16.41;92.25
38022;BME280;23832;43.216;27.946;2022-10-16T05:34:34;101680.56;;;16.60;91.67
38022;BME280;23832;43.216;27.946;2022-10-16T05:36:36;101682.41;;;16.74;88.52
38022;BME280;23832;43.216;27.946;2022-10-16T05:38:38;101677.22;;;16.87;84.44
38022;BME280;23832;43.216;27.946;2022-10-16T05:40:40;101682.41;;;16.95;83.50
38022;BME280;23832;43.216;27.946;2022-10-16T05:42:41;101678.50;;;17.13;83.79
38022;BME280;23832;43.216;27.946;2022-10-16T05:44:43;101688.50;;;17.32;83.64
38022;BME280;23832;43.216;27.946;2022-10-16T05:46:45;101682.28;;;17.46;80.71
38022;BME280;23832;43.216;27.946;2022-10-16T05:48:51;101685.50;;;17.63;79.59
38022;BME280;23832;43.216;27.946;2022-10-16T05:50:59;101690.75;;;17.78;78.27
38022;BME280;23832;43.216;27.946;2022-10-16T05:53:01;101687.56;;;17.96;76.58
38022;BME280;23832;43.216;27.946;2022-10-16T05:55:03;101696.31;;;18.11;76.07
38022;BME280;23832;43.216;27.946;2022-10-16T05:57:05;101703.38;;;18.25;72.25
38022;BME280;23832;43.216;27.946;2022-10-16T05:59:07;101703.00;;;18.35;69.12
38022;BME280;23832;43.216;27.946;2022-10-16T06:01:09;101705.94;;;18.47;69.43
38022;BME280;23832;43.216;27.946;2022-10-16T06:03:11;101710.31;;;18.61;68.69
38022;BME280;23832;43.216;27.946;2022-10-16T06:05:15;101707.72;;;18.74;67.83
38022;BME280;23832;43.216;27.946;2022-10-16T06:07:16;101715.16;;;18.92;67.35
38022;BME280;23832;43.216;27.946;2022-10-16T06:09:18;101723.22;;;19.05;65.86
38022;BME280;23832;43.216;27.946;2022-10-16T06:11:21;101725.50;;;19.21;65.54
38022;BME280;23832;43.216;27.946;2022-10-16T06:13:23;101729.00;;;19.35;62.81
38022;BME280;23832;43.216;27.946;2022-10-16T06:15:25;101720.38;;;19.46;62.26
38022;BME280;23832;43.216;27.946;2022-10-16T06:17:26;101723.09;;;19.60;62.19
38022;BME280;23832;43.216;27.946;2022-10-16T06:19:28;101725.34;;;19.76;62.48
38022;BME280;23832;43.216;27.946;2022-10-16T06:21:32;101729.22;;;19.93;61.63
38022;BME280;23832;43.216;27.946;2022-10-16T06:23:34;101724.25;;;20.10;60.54
38022;BME280;23832;43.216;27.946;2022-10-16T06:25:36;101730.63;;;20.22;58.58
38022;BME280;23832;43.216;27.946;2022-10-16T06:27:39;101723.81;;;20.33;58.25
38022;BME280;23832;43.216;27.946;2022-10-16T06:29:40;101725.84;;;20.44;57.90
38022;BME280;23832;43.216;27.946;2022-10-16T06:31:43;101724.97;;;20.57;57.48
38022;BME280;23832;43.216;27.946;2022-10-16T06:33:45;101726.56;;;20.71;57.63
38022;BME280;23832;43.216;27.946;2022-10-16T06:35:47;101723.81;;;20.84;56.33
38022;BME280;23832;43.216;27.946;2022-10-16T06:37:52;101734.47;;;20.97;56.26
38022;BME280;23832;43.216;27.946;2022-10-16T06:39:53;101737.28;;;21.09;55.56
38022;BME280;23832;43.216;27.946;2022-10-16T06:41:55;101734.31;;;21.24;55.37
38022;BME280;23832;43.216;27.946;2022-10-16T06:43:57;101736.91;;;21.37;55.11
38022;BME280;23832;43.216;27.946;2022-10-16T06:45:59;101744.66;;;21.52;54.95
38022;BME280;23832;43.216;27.946;2022-10-16T06:48:01;101752.75;;;21.70;54.83
38022;BME280;23832;43.216;27.946;2022-10-16T06:50:03;101754.06;;;21.86;53.52
38022;BME280;23832;43.216;27.946;2022-10-16T06:52:06;101745.06;;;21.99;53.03
38022;BME280;23832;43.216;27.946;2022-10-16T06:54:09;101748.91;;;22.09;52.47
38022;BME280;23832;43.216;27.946;2022-10-16T06:56:12;101756.84;;;22.23;52.53
38022;BME280;23832;43.216;27.946;2022-10-16T06:58:14;101757.50;;;22.36;52.60
38022;BME280;23832;43.216;27.946;2022-10-16T07:00:16;101760.41;;;22.53;52.22
38022;BME280;23832;43.216;27.946;2022-10-16T07:02:18;101762.72;;;22.68;51.42
38022;BME280;23832;43.216;27.946;2022-10-16T07:04:19;101759.47;;;22.84;51.01
38022;BME280;23832;43.216;27.946;2022-10-16T07:06:22;101769.78;;;22.99;50.39
38022;BME280;23832;43.216;27.946;2022-10-16T07:08:24;101767.50;;;23.14;50.14
38022;BME280;23832;43.216;27.946;2022-10-16T07:10:27;101767.94;;;23.30;49.38
38022;BME280;23832;43.216;27.946;2022-10-16T07:12:29;101766.22;;;23.47;49.43
38022;BME280;23832;43.216;27.946;2022-10-16T07:14:31;101772.22;;;23.61;48.76
38022;BME280;23832;43.216;27.946;2022-10-16T07:16:32;101769.91;;;23.76;47.74
38022;BME280;23832;43.216;27.946;2022-10-16T07:18:34;101774.22;;;23.89;47.19
38022;BME280;23832;43.216;27.946;2022-10-16T07:20:36;101777.03;;;24.05;47.53
38022;BME280;23832;43.216;27.946;2022-10-16T07:22:40;101770.13;;;24.21;46.54
38022;BME280;23832;43.216;27.946;2022-10-16T07:24:44;101785.63;;;24.38;46.40
38022;BME280;23832;43.216;27.946;2022-10-16T07:26:50;101778.69;;;24.53;46.41
38022;BME280;23832;43.216;27.946;2022-10-16T07:28:51;101783.31;;;24.70;45.75
38022;BME280;23832;43.216;27.946;2022-10-16T07:30:53;101769.88;;;24.86;45.29
38022;BME280;23832;43.216;27.946;2022-10-16T07:32:54;101778.88;;;25.04;44.99
38022;BME280;23832;43.216;27.946;2022-10-16T07:34:56;101778.91;;;25.21;44.55
38022;BME280;23832;43.216;27.946;2022-10-16T07:36:59;101778.44;;;25.40;44.54
38022;BME280;23832;43.216;27.946;2022-10-16T07:39:01;101784.69;;;25.58;44.12
38022;BME280;23832;43.216;27.946;2022-10-16T07:41:03;101783.66;;;25.75;43.65
38022;BME280;23832;43.216;27.946;2022-10-16T07:43:07;101783.56;;;25.87;42.19
38022;BME280;23832;43.216;27.946;2022-10-16T07:45:09;101778.25;;;25.92;41.03
38022;BME280;23832;43.216;27.946;2022-10-16T07:47:10;101781.25;;;25.96;40.72
38022;BME280;23832;43.216;27.946;2022-10-16T07:49:12;101786.50;;;26.02;40.69
38022;BME280;23832;43.216;27.946;2022-10-16T07:51:14;101786.63;;;26.13;40.51
38022;BME280;23832;43.216;27.946;2022-10-16T07:53:16;101792.75;;;26.25;40.93
38022;BME280;23832;43.216;27.946;2022-10-16T07:55:18;101778.66;;;26.40;40.15
38022;BME280;23832;43.216;27.946;2022-10-16T07:57:20;101787.22;;;26.53;39.81
38022;BME280;23832;43.216;27.946;2022-10-16T07:59:23;101794.69;;;26.68;39.64
38022;BME280;23832;43.216;27.946;2022-10-16T08:01:24;101770.53;;;26.83;39.11
38022;BME280;23832;43.216;27.946;2022-10-16T08:03:26;101776.38;;;26.97;39.30
38022;BME280;23832;43.216;27.946;2022-10-16T08:05:28;101782.19;;;27.11;38.80
38022;BME280;23832;43.216;27.946;2022-10-16T08:07:30;101774.75;;;27.23;38.20
38022;BME280;23832;43.216;27.946;2022-10-16T08:09:31;101777.59;;;27.38;38.07
38022;BME280;23832;43.216;27.946;2022-10-16T08:11:33;101779.81;;;27.47;37.17
38022;BME280;23832;43.216;27.946;2022-10-16T08:13:34;101779.63;;;27.53;36.52
38022;BME280;23832;43.216;27.946;2022-10-16T08:15:38;101776.72;;;27.65;36.51
38022;BME280;23832;43.216;27.946;2022-10-16T08:17:39;101781.97;;;27.77;36.49
38022;BME280;23832;43.216;27.946;2022-10-16T08:19:43;101782.63;;;27.89;36.02
38022;BME280;23832;43.216;27.946;2022-10-16T08:21:46;101783.50;;;27.99;35.56
38022;BME280;23832;43.216;27.946;2022-10-16T08:23:48;101790.38;;;28.17;36.01
38022;BME280;23832;43.216;27.946;2022-10-16T08:25:50;101783.47;;;28.37;35.79
38022;BME280;23832;43.216;27.946;2022-10-16T08:27:52;101780.28;;;28.55;35.17
38022;BME280;23832;43.216;27.946;2022-10-16T08:29:53;101777.91;;;28.74;35.25
38022;BME280;23832;43.216;27.946;2022-10-16T08:31:57;101777.72;;;28.91;34.89
38022;BME280;23832;43.216;27.946;2022-10-16T08:33:58;101778.28;;;29.08;34.46
38022;BME280;23832;43.216;27.946;2022-10-16T08:36:00;101784.28;;;29.20;33.77
38022;BME280;23832;43.216;27.946;2022-10-16T08:38:02;101779.13;;;29.34;33.08
38022;BME280;23832;43.216;27.946;2022-10-16T08:40:10;101781.31;;;29.42;32.52
38022;BME280;23832;43.216;27.946;2022-10-16T08:42:19;101789.22;;;29.49;32.47
38022;BME280;23832;43.216;27.946;2022-10-16T08:44:30;101786.50;;;29.69;33.46
38022;BME280;23832;43.216;27.946;2022-10-16T08:46:40;101786.47;;;29.84;32.50
38022;BME280;23832;43.216;27.946;2022-10-16T08:48:46;101795.69;;;30.04;31.97
38022;BME280;23832;43.216;27.946;2022-10-16T08:50:49;101795.91;;;30.28;32.41
38022;BME280;23832;43.216;27.946;2022-10-16T08:52:52;101793.38;;;30.51;32.17
38022;BME280;23832;43.216;27.946;2022-10-16T08:54:54;101796.03;;;30.72;31.63
38022;BME280;23832;43.216;27.946;2022-10-16T08:56:56;101795.44;;;30.85;30.65
38022;BME280;23832;43.216;27.946;2022-10-16T08:59:03;101788.00;;;30.96;30.36
38022;BME280;23832;43.216;27.946;2022-10-16T09:01:10;101794.78;;;31.03;30.51
38022;BME280;23832;43.216;27.946;2022-10-16T09:03:16;101789.84;;;31.05;29.61
38022;BME280;23832;43.216;27.946;2022-10-16T09:05:23;101798.88;;;31.01;
38022;BME280;23832;43.216;27.946;2022-10-16T09:07:32;101783.59;;;31.05;29.66
38022;BME280;23832;43.216;27.946;2022-10-16T09:09:48;101800.66;;;31.16;30.10
38022;BME280;23832;43.216;27.946;2022-10-16T09:11:56;101792.66;;;31.34;30.03
38022;BME280;23832;43.216;27.946;2022-10-16T09:14:02;101799.88;;;31.54;29.72
38022;BME280;23832;43.216;27.946;2022-10-16T09:16:12;101790.44;;;31.71;29.29
38022;BME280;23832;43.216;27.946;2022-10-16T09:18:17;101790.91;;;31.83;28.89
38022;BME280;23832;43.216;27.946;2022-10-16T09:20:25;101793.53;;;31.93;28.55
38022;BME280;23832;43.216;27.946;2022-10-16T09:22:29;101793.88;;;31.86;27.80
38022;BME280;23832;43.216;27.946;2022-10-16T09:24:34;101792.88;;;31.72;27.29
38022;BME280;23832;43.216;27.946;2022-10-16T09:26:36;101791.59;;;31.64;27.51
38022;BME280;23832;43.216;27.946;2022-10-16T09:28:38;101786.72;;;31.61;27.85
38022;BME280;23832;43.216;27.946;2022-10-16T09:30:39;101798.69;;;31.66;28.10
38022;BME280;23832;43.216;27.946;2022-10-16T09:32:41;101792.31;;;31.75;28.33
38022;BME280;23832;43.216;27.946;2022-10-16T09:34:45;101798.53;;;31.81;27.57
38022;BME280;23832;43.216;27.946;2022-10-16T09:36:49;101794.09;;;31.90;28.03
38022;BME280;23832;43.216;27.946;2022-10-16T09:39:00;101796.16;;;32.03;27.88
38022;BME280;23832;43.216;27.946;2022-10-16T09:41:13;101792.72;;;32.16;27.71
38022;BME280;23832;43.216;27.946;2022-10-16T09:43:19;101790.16;;;32.25;27.09
38022;BME280;23832;43.216;27.946;2022-10-16T09:45:22;101795.31;;;32.32;27.33
38022;BME280;23832;43.216;27.946;2022-10-16T09:47:30;101787.50;;;32.44;26.85
38022;BME280;23832;43.216;27.946;2022-10-16T09:49:33;101782.00;;;32.49;26.92
38022;BME280;23832;43.216;27.946;2022-10-16T09:51:35;101787.91;;;32.56;27.01
38022;BME280;23832;43.216;27.946;2022-10-16T09:53:39;101790.00;;;32.64;27.42
38022;BME280;23832;43.216;27.946;2022-10-16T09:55:47;101789.34;;;32.72;27.31
38022;BME280;23832;43.216;27.946;2022-10-16T09:57:51;101789.47;;;32.62;26.69
38022;BME280;23832;43.216;27.946;2022-10-16T09:59:53;101787.69;;;32.29;25.89
38022;BME280;23832;43.216;27.946;2022-10-16T10:01:55;101785.75;;;32.05;26.36
38022;BME280;23832;43.216;27.946;2022-10-16T10:04:00;101783.31;;;32.04;27.11
38022;BME280;23832;43.216;27.946;2022-10-16T10:06:05;101746.41;;;31.87;27.26
38022;BME280;23832;43.216;27.946;2022-10-16T10:08:12;101784.34;;;32.08;26.03
38022;BME280;23832;43.216;27.946;2022-10-16T10:10:19;101787.63;;;32.10;26.22
38022;BME280;23832;43.216;27.946;2022-10-16T10:12:23;101785.81;;;32.24;27.35
38022;BME280;23832;43.216;27.946;2022-10-16T10:14:30;101782.03;;;32.44;27.15
38022;BME280;23832;43.216;27.946;2022-10-16T10:16:33;101790.03;;;32.59;26.79
38022;BME280;23832;43.216;27.946;2022-10-16T10:18:35;101778.63;;;32.76;27.03
38022;BME280;23832;43.216;27.946;2022-10-16T10:20:37;101776.88;;;32.85;26.80
38022;BME280;23832;43.216;27.946;2022-10-16T10:22:40;101780.34;;;32.72;26.52
38022;BME280;23832;43.216;27.946;2022-10-16T10:24:42;101779.78;;;32.70;26.57
38022;BME280;23832;43.216;27.946;2022-10-16T10:26:48;101780.19;;;32.63;27.31
38022;BME280;23832;43.216;27.946;2022-10-16T10:28:53;101777.81;;;32.75;27.55
38022;BME280;23832;43.216;27.946;2022-10-16T10:31:00;101771.44;;;32.85;27.51
38022;BME280;23832;43.216;27.946;2022-10-16T10:33:22;101786.84;;;32.95;27.28